createdAt,value
2022-08-12T00:00:00.783Z,57.32
2022-08-12T00:01:00.788Z,56.99
2022-08-12T00:02:03.172Z,57.02
2022-08-12T00:03:00.874Z,56.82
2022-08-12T00:04:00.750Z,56.52
2022-08-12T00:05:00.720Z,57.32
2022-08-12T00:06:04.568Z,57.02
2022-08-12T00:07:00.703Z,57.35
2022-08-12T00:08:00.688Z,57.72
2022-08-12T00:09:00.689Z,57.24
2022-08-12T00:10:00.668Z,59.32
2022-08-12T00:11:09.635Z,57.55
2022-08-12T00:12:01.661Z,57.15
2022-08-12T00:13:00.633Z,57.65
2022-08-12T00:14:00.644Z,57.55
2022-08-12T00:15:00.605Z,57.65
2022-08-12T00:16:00.603Z,57.24
2022-08-12T00:17:00.590Z,57.55
2022-08-12T00:18:00.580Z,58.05
2022-08-12T00:19:00.559Z,57.87
2022-08-12T00:20:00.573Z,58.07
2022-08-12T00:21:00.536Z,59.15
2022-08-12T00:22:00.535Z,59.35
2022-08-12T00:23:00.524Z,58.58
2022-08-12T00:24:00.504Z,58.45
2022-08-12T00:25:00.549Z,59.58
2022-08-12T00:26:20.338Z,59.08
2022-08-12T00:27:01.469Z,59.08
2022-08-12T00:28:00.460Z,59.28
2022-08-12T00:29:00.455Z,59.35
2022-08-12T00:30:00.443Z,59.38
2022-08-12T00:31:00.470Z,58.95
2022-08-12T00:32:01.290Z,59.05
2022-08-12T00:33:00.537Z,59.58
2022-08-12T00:34:00.579Z,59.18
2022-08-12T00:35:00.386Z,59.08
2022-08-12T00:36:01.463Z,58.68
2022-08-12T00:37:07.240Z,59.48
2022-08-12T00:38:01.355Z,59.28
2022-08-12T00:39:00.339Z,59.28
2022-08-12T00:40:00.333Z,59.38
2022-08-12T00:41:00.314Z,58.98
2022-08-12T00:42:00.323Z,59.41
2022-08-12T00:43:00.298Z,58.98
2022-08-12T00:44:00.280Z,59.88
2022-08-12T00:45:00.275Z,59.88
2022-08-12T00:46:00.267Z,59.70
2022-08-12T00:47:00.269Z,60.28
2022-08-12T00:48:00.235Z,60.28
2022-08-12T00:49:00.223Z,60.41
2022-08-12T00:50:00.226Z,60.38
2022-08-12T00:51:00.203Z,60.11
2022-08-12T00:52:00.222Z,60.21
2022-08-12T00:53:00.187Z,60.78
2022-08-12T00:54:00.176Z,60.41
2022-08-12T00:55:00.175Z,60.21
2022-08-12T00:56:00.155Z,60.81
2022-08-12T00:57:00.146Z,61.11
2022-08-12T00:58:00.145Z,60.91
2022-08-12T00:59:00.108Z,61.08
2022-08-12T01:00:00.155Z,61.11
2022-08-12T01:01:00.158Z,61.31
2022-08-12T01:02:02.450Z,61.11
2022-08-12T01:03:01.074Z,61.44
2022-08-12T01:04:00.080Z,61.81
2022-08-12T01:05:00.049Z,61.84
2022-08-12T01:06:00.032Z,61.74
2022-08-12T01:07:00.027Z,61.84
2022-08-12T01:08:00.032Z,61.74
2022-08-12T01:09:00.005Z,61.84
2022-08-12T01:09:59.987Z,61.34
2022-08-12T01:10:59.977Z,61.84
2022-08-12T01:11:59.978Z,61.94
2022-08-12T01:13:07.315Z,61.74
2022-08-12T01:14:00.948Z,61.84
2022-08-12T01:14:59.940Z,61.94
2022-08-12T01:15:59.926Z,62.04
2022-08-12T01:16:59.907Z,62.84
2022-08-12T01:17:59.897Z,62.64
2022-08-12T01:18:59.901Z,62.24
2022-08-12T01:19:59.881Z,62.14
2022-08-12T01:20:59.864Z,62.14
2022-08-12T01:21:59.860Z,62.34
2022-08-12T01:22:59.840Z,62.64
2022-08-12T01:23:59.851Z,62.24
2022-08-12T01:25:00.825Z,62.04
2022-08-12T01:25:59.813Z,62.54
2022-08-12T01:26:59.806Z,62.17
2022-08-12T01:27:59.785Z,62.24
2022-08-12T01:28:59.794Z,62.27
2022-08-12T01:29:59.760Z,62.67
2022-08-12T01:30:59.750Z,62.67
2022-08-12T01:31:59.738Z,62.57
2022-08-12T01:32:59.727Z,62.80
2022-08-12T01:33:59.790Z,62.77
2022-08-12T01:34:59.710Z,63.00
2022-08-12T01:36:08.213Z,63.00
2022-08-12T01:37:00.685Z,63.00
2022-08-12T01:37:59.682Z,63.10
2022-08-12T01:38:59.681Z,63.10
2022-08-12T01:40:36.046Z,63.50
2022-08-12T01:41:00.720Z,63.40
2022-08-12T01:41:59.636Z,63.40
2022-08-12T01:42:59.623Z,63.31
2022-08-12T01:43:59.622Z,63.40
2022-08-12T01:44:59.601Z,63.60
2022-08-12T01:45:59.596Z,63.43
2022-08-12T01:46:59.581Z,63.81
2022-08-12T01:47:59.567Z,63.50
2022-08-12T01:48:59.559Z,63.40
2022-08-12T01:49:59.558Z,63.70
2022-08-12T01:51:00.307Z,63.50
2022-08-12T01:52:20.392Z,63.40
2022-08-12T01:53:00.513Z,63.53
2022-08-12T01:53:59.495Z,63.33
2022-08-12T01:54:59.506Z,63.70
2022-08-12T01:55:59.479Z,63.81
2022-08-12T01:56:59.462Z,63.81
2022-08-12T01:58:01.178Z,63.60
2022-08-12T01:58:59.445Z,64.31
2022-08-12T01:59:59.441Z,64.14
2022-08-12T02:00:59.572Z,64.31
2022-08-12T02:01:59.414Z,64.11
2022-08-12T02:02:59.402Z,64.34
2022-08-12T02:03:59.398Z,64.64
2022-08-12T02:04:59.384Z,64.64
2022-08-12T02:05:59.373Z,64.34
2022-08-12T02:06:59.363Z,64.74
2022-08-12T02:07:59.338Z,64.84
2022-08-12T02:08:59.335Z,64.84
2022-08-12T02:09:59.323Z,64.94
2022-08-12T02:10:59.328Z,65.04
2022-08-12T02:11:59.324Z,65.34
2022-08-12T02:13:00.290Z,65.64
2022-08-12T02:13:59.275Z,64.94
2022-08-12T02:14:59.314Z,65.64
2022-08-12T02:15:59.262Z,65.64
2022-08-12T02:16:59.237Z,65.47
2022-08-12T02:17:59.228Z,65.34
2022-08-12T02:18:59.227Z,65.67
2022-08-12T02:19:59.209Z,65.47
2022-08-12T02:20:59.207Z,65.57
2022-08-12T02:21:59.190Z,65.37
2022-08-12T02:22:59.176Z,65.67
2022-08-12T02:23:59.164Z,65.67
2022-08-12T02:24:59.149Z,65.67
2022-08-12T02:25:59.136Z,65.77
2022-08-12T02:26:59.138Z,65.57
2022-08-12T02:27:59.120Z,65.57
2022-08-12T02:29:00.103Z,65.27
2022-08-12T02:29:59.094Z,65.17
2022-08-12T02:30:59.081Z,66.08
2022-08-12T02:31:59.092Z,65.27
2022-08-12T02:32:59.067Z,66.08
2022-08-12T02:33:59.050Z,65.88
2022-08-12T02:34:59.043Z,65.88
2022-08-12T02:35:59.033Z,65.91
2022-08-12T02:37:03.813Z,65.50
2022-08-12T02:37:59.032Z,65.70
2022-08-12T02:38:58.992Z,65.91
2022-08-12T02:39:59.059Z,65.60
2022-08-12T02:40:58.977Z,66.00
2022-08-12T02:41:58.963Z,66.11
2022-08-12T02:42:58.966Z,66.31
2022-08-12T02:43:58.935Z,66.51
2022-08-12T02:44:58.925Z,66.51
2022-08-12T02:45:58.913Z,66.51
2022-08-12T02:46:58.902Z,66.31
2022-08-12T02:48:01.059Z,66.44
2022-08-12T02:48:58.879Z,66.81
2022-08-12T02:49:58.875Z,66.81
2022-08-12T02:50:58.858Z,66.84
2022-08-12T02:51:58.862Z,66.94
2022-08-12T02:52:58.876Z,66.84
2022-08-12T02:54:05.648Z,66.94
2022-08-12T02:54:59.811Z,68.15
2022-08-12T02:55:58.812Z,67.04
2022-08-12T02:56:58.797Z,67.14
2022-08-12T02:57:58.800Z,67.24
2022-08-12T02:58:59.767Z,67.14
2022-08-12T02:59:58.763Z,67.04
2022-08-12T03:00:58.843Z,67.04
2022-08-12T03:01:58.744Z,66.54
2022-08-12T03:02:58.745Z,66.44
2022-08-12T03:03:58.711Z,67.04
2022-08-12T03:04:58.700Z,66.54
2022-08-12T03:05:58.690Z,66.44
2022-08-12T03:06:58.690Z,66.74
2022-08-12T03:08:00.088Z,66.64
2022-08-12T03:08:58.659Z,66.94
2022-08-12T03:10:05.434Z,67.27
2022-08-12T03:10:59.635Z,67.55
2022-08-12T03:11:58.622Z,67.88
2022-08-12T03:12:58.627Z,67.68
2022-08-12T03:13:58.598Z,67.88
2022-08-12T03:14:58.596Z,68.18
2022-08-12T03:15:58.592Z,67.07
2022-08-12T03:16:58.581Z,67.85
2022-08-12T03:18:26.515Z,67.27
2022-08-12T03:18:59.544Z,67.78
2022-08-12T03:20:09.131Z,67.78
2022-08-12T03:20:59.535Z,67.58
2022-08-12T03:22:08.902Z,67.78
2022-08-12T03:22:59.513Z,67.78
2022-08-12T03:23:58.489Z,67.88
2022-08-12T03:24:58.476Z,67.88
2022-08-12T03:25:58.464Z,68.01
2022-08-12T03:27:00.269Z,67.91
2022-08-12T03:27:58.468Z,67.88
2022-08-12T03:28:58.438Z,67.81
2022-08-12T03:29:58.418Z,67.61
2022-08-12T03:30:58.409Z,67.91
2022-08-12T03:31:58.403Z,68.11
2022-08-12T03:32:58.408Z,67.71
2022-08-12T03:34:02.219Z,67.71
2022-08-12T03:34:58.374Z,67.91
2022-08-12T03:35:58.361Z,67.71
2022-08-12T03:36:58.341Z,67.91
2022-08-12T03:37:58.348Z,68.51
2022-08-12T03:38:58.331Z,67.61
2022-08-12T03:39:58.404Z,67.91
2022-08-12T03:40:58.309Z,67.91
2022-08-12T03:41:58.362Z,67.81
2022-08-12T03:42:58.302Z,67.71
2022-08-12T03:43:58.293Z,67.81
2022-08-12T03:44:58.258Z,68.11
2022-08-12T03:45:58.250Z,67.91
2022-08-12T03:46:58.237Z,68.01
2022-08-12T03:47:58.233Z,67.71
2022-08-12T03:48:58.210Z,67.74
2022-08-12T03:49:58.225Z,67.91
2022-08-12T03:50:58.185Z,67.94
2022-08-12T03:51:58.176Z,67.71
2022-08-12T03:52:58.185Z,67.91
2022-08-12T03:53:58.156Z,67.81
2022-08-12T03:54:58.147Z,67.61
2022-08-12T03:55:58.162Z,67.81
2022-08-12T03:56:58.157Z,67.81
2022-08-12T03:57:58.120Z,68.24
2022-08-12T03:58:58.101Z,68.15
2022-08-12T03:59:58.087Z,68.15
2022-08-12T04:00:58.135Z,68.55
2022-08-12T04:01:58.372Z,68.44
2022-08-12T04:02:58.069Z,68.04
2022-08-12T04:03:58.041Z,68.04
2022-08-12T04:04:58.082Z,68.15
2022-08-12T04:05:58.022Z,68.04
2022-08-12T04:06:58.003Z,68.24
2022-08-12T04:07:58.697Z,68.75
2022-08-12T04:08:57.987Z,68.48
2022-08-12T04:09:57.967Z,69.38
2022-08-12T04:10:57.955Z,68.78
2022-08-12T04:11:57.942Z,68.65
2022-08-12T04:12:58.188Z,68.58
2022-08-12T04:13:57.931Z,68.48
2022-08-12T04:14:57.913Z,68.98
2022-08-12T04:15:57.904Z,68.04
2022-08-12T04:16:57.889Z,68.24
2022-08-12T04:18:07.094Z,68.65
2022-08-12T04:18:58.860Z,68.65
2022-08-12T04:19:57.975Z,69.35
2022-08-12T04:20:57.845Z,68.75
2022-08-12T04:22:01.893Z,68.75
2022-08-12T04:22:58.831Z,68.48
2022-08-12T04:23:57.802Z,68.35
2022-08-12T04:24:57.807Z,68.24
2022-08-12T04:25:57.777Z,68.95
2022-08-12T04:26:57.771Z,68.58
2022-08-12T04:27:57.774Z,68.98
2022-08-12T04:28:58.752Z,68.65
2022-08-12T04:30:17.010Z,69.35
2022-08-12T04:30:58.727Z,69.38
2022-08-12T04:31:57.759Z,68.78
2022-08-12T04:32:57.843Z,69.29
2022-08-12T04:33:57.688Z,68.98
2022-08-12T04:34:57.721Z,68.98
2022-08-12T04:35:57.680Z,69.59
2022-08-12T04:36:57.707Z,70.29
2022-08-12T04:38:00.121Z,69.69
2022-08-12T04:38:59.675Z,69.35
2022-08-12T04:39:57.664Z,69.69
2022-08-12T04:40:57.617Z,69.89
2022-08-12T04:41:58.755Z,69.69
2022-08-12T04:42:57.616Z,69.65
2022-08-12T04:44:02.040Z,69.85
2022-08-12T04:44:57.579Z,69.79
2022-08-12T04:45:57.558Z,69.65
2022-08-12T04:46:57.549Z,69.85
2022-08-12T04:47:57.568Z,69.85
2022-08-12T04:48:57.528Z,70.06
2022-08-12T04:49:57.519Z,69.59
2022-08-12T04:50:57.506Z,69.56
2022-08-12T04:51:59.089Z,70.06
2022-08-12T04:52:57.500Z,70.26
2022-08-12T04:53:57.470Z,70.36
2022-08-12T04:54:57.460Z,70.26
2022-08-12T04:55:57.441Z,70.06
2022-08-12T04:57:03.521Z,69.56
2022-08-12T04:57:58.441Z,69.85
2022-08-12T04:58:57.415Z,69.45
2022-08-12T04:59:57.397Z,69.96
2022-08-12T05:00:57.398Z,69.96
2022-08-12T05:01:57.702Z,69.96
2022-08-12T05:02:57.448Z,70.06
2022-08-12T05:03:57.369Z,69.85
2022-08-12T05:05:00.983Z,70.26
2022-08-12T05:05:57.339Z,69.85
2022-08-12T05:06:57.328Z,70.66
2022-08-12T05:07:57.326Z,70.26
2022-08-12T05:08:57.336Z,70.66
2022-08-12T05:09:59.893Z,70.46
2022-08-12T05:10:57.278Z,70.66
2022-08-12T05:11:57.265Z,70.12
2022-08-12T05:12:57.268Z,70.43
2022-08-12T05:13:57.252Z,70.12
2022-08-12T05:14:57.239Z,69.62
2022-08-12T05:16:05.146Z,69.42
2022-08-12T05:16:58.212Z,70.12
2022-08-12T05:17:59.879Z,69.99
2022-08-12T05:18:57.189Z,69.62
2022-08-12T05:19:58.006Z,69.18
2022-08-12T05:20:57.166Z,69.38
2022-08-12T05:21:57.158Z,68.18
2022-08-12T05:22:59.442Z,68.05
2022-08-12T05:23:58.139Z,67.65
2022-08-12T05:24:57.123Z,67.94
2022-08-12T05:25:57.437Z,66.03
2022-08-12T05:26:57.105Z,66.31
2022-08-12T05:27:58.578Z,64.60
2022-08-12T05:28:57.095Z,64.40
2022-08-12T05:30:08.273Z,65.27
2022-08-12T05:30:58.055Z,65.88
2022-08-12T05:31:57.053Z,65.94
2022-08-12T05:32:59.921Z,65.64
2022-08-12T05:33:57.041Z,64.84
2022-08-12T05:34:57.011Z,64.40
2022-08-12T05:35:57.006Z,64.18
2022-08-12T05:36:56.997Z,63.37
2022-08-12T05:37:56.976Z,62.67
2022-08-12T05:38:56.983Z,62.57
2022-08-12T05:39:57.035Z,63.75
2022-08-12T05:40:56.943Z,63.34
2022-08-12T05:41:56.938Z,63.24
2022-08-12T05:42:56.917Z,63.45
2022-08-12T05:43:56.918Z,63.64
2022-08-12T05:44:56.945Z,62.54
2022-08-12T05:45:56.891Z,62.41
2022-08-12T05:46:56.876Z,62.51
2022-08-12T05:47:56.869Z,62.51
2022-08-12T05:48:56.851Z,61.21
2022-08-12T05:49:56.858Z,61.61
2022-08-12T05:50:56.830Z,61.21
2022-08-12T05:51:56.821Z,61.21
2022-08-12T05:52:56.809Z,60.18
2022-08-12T05:53:56.799Z,60.18
2022-08-12T05:54:57.976Z,60.48
2022-08-12T05:55:56.776Z,60.35
2022-08-12T05:56:56.761Z,59.05
2022-08-12T05:57:57.085Z,57.24
2022-08-12T05:58:57.369Z,58.75
2022-08-12T05:59:56.744Z,57.24
2022-08-12T06:00:56.719Z,57.55
2022-08-12T06:02:08.741Z,57.55
2022-08-12T06:02:57.744Z,58.55
2022-08-12T06:03:56.695Z,57.35
2022-08-12T06:04:56.694Z,59.75
2022-08-12T06:05:56.664Z,57.22
2022-08-12T06:06:56.659Z,56.72
2022-08-12T06:08:01.657Z,57.02
2022-08-12T06:08:57.636Z,56.82
2022-08-12T06:09:56.641Z,57.72
2022-08-12T06:10:56.605Z,57.69
2022-08-12T06:12:04.448Z,56.79
2022-08-12T06:12:57.584Z,55.79
2022-08-12T06:13:56.572Z,55.59
2022-08-12T06:14:56.578Z,55.59
2022-08-12T06:15:56.557Z,56.39
2022-08-12T06:16:56.538Z,55.59
2022-08-12T06:17:56.535Z,55.87
2022-08-12T06:18:56.524Z,55.47
2022-08-12T06:20:28.345Z,56.77
2022-08-12T06:20:57.500Z,55.17
2022-08-12T06:21:56.483Z,55.27
2022-08-12T06:22:56.476Z,55.66
2022-08-12T06:23:56.463Z,56.74
2022-08-12T06:24:56.477Z,55.44
2022-08-12T06:25:56.443Z,55.11
2022-08-12T06:26:56.436Z,55.39
2022-08-12T06:28:07.552Z,53.56
2022-08-12T06:28:57.409Z,53.47
2022-08-12T06:30:09.525Z,54.57
2022-08-12T06:31:24.225Z,53.86
2022-08-12T06:31:57.378Z,53.14
2022-08-12T06:33:10.703Z,53.81
2022-08-12T06:34:52.787Z,53.22
2022-08-12T06:35:25.358Z,52.79
2022-08-12T06:35:58.970Z,52.76
2022-08-12T06:36:56.322Z,51.67
2022-08-12T06:37:57.018Z,51.20
2022-08-12T06:38:56.307Z,51.10
2022-08-12T06:40:00.202Z,52.49
2022-08-12T06:40:57.278Z,52.69
2022-08-12T06:42:30.637Z,52.49
2022-08-12T06:42:57.256Z,52.19
2022-08-12T06:44:04.475Z,51.57
2022-08-12T06:44:57.247Z,52.67
2022-08-12T06:45:56.225Z,52.47
2022-08-12T06:46:56.808Z,51.07
2022-08-12T06:47:56.196Z,51.47
2022-08-12T06:48:56.185Z,51.07
2022-08-12T06:49:56.196Z,51.67
2022-08-12T06:50:56.169Z,51.47
2022-08-12T06:51:57.311Z,51.27
2022-08-12T06:52:56.377Z,52.47
2022-08-12T06:53:56.136Z,52.29
2022-08-12T06:54:56.141Z,52.37
2022-08-12T06:55:58.262Z,52.64
2022-08-12T06:58:05.862Z,50.85
2022-08-12T06:58:08.044Z,50.85
2022-08-12T06:58:57.080Z,50.23
2022-08-12T06:59:56.084Z,49.46
2022-08-12T07:00:56.167Z,49.76
2022-08-12T07:01:56.039Z,50.38
2022-08-12T07:02:56.035Z,51.17
2022-08-12T07:04:01.820Z,50.57
2022-08-12T07:04:57.032Z,52.37
2022-08-12T07:05:56.000Z,52.14
2022-08-12T07:06:55.988Z,51.84
2022-08-12T07:07:55.971Z,50.75
2022-08-12T07:08:56.015Z,51.15
2022-08-12T07:10:05.836Z,50.65
2022-08-12T07:10:56.938Z,50.57
2022-08-12T07:11:55.925Z,51.57
2022-08-12T07:12:55.918Z,52.37
2022-08-12T07:14:12.011Z,50.78
2022-08-12T07:14:56.913Z,51.17
2022-08-12T07:15:55.886Z,51.17
2022-08-12T07:16:55.875Z,51.17
2022-08-12T07:17:55.864Z,51.07
2022-08-12T07:18:55.844Z,52.29
2022-08-12T07:20:00.508Z,52.17
2022-08-12T07:20:56.820Z,51.87
2022-08-12T07:21:59.849Z,51.84
2022-08-12T07:22:56.804Z,51.84
2022-08-12T07:23:55.802Z,51.62
2022-08-12T07:24:55.795Z,51.10
2022-08-12T07:25:58.416Z,50.90
2022-08-12T07:26:55.752Z,50.68
2022-08-12T07:27:55.762Z,49.38
2022-08-12T07:28:55.736Z,50.18
2022-08-12T07:30:00.076Z,50.68
2022-08-12T07:30:56.726Z,49.38
2022-08-12T07:31:55.709Z,49.68
2022-08-12T07:33:01.278Z,49.56
2022-08-12T07:33:56.681Z,48.96
2022-08-12T07:34:55.668Z,48.86
2022-08-12T07:35:55.657Z,49.46
2022-08-12T07:36:55.651Z,50.05
2022-08-12T07:37:55.661Z,49.76
2022-08-12T07:38:55.616Z,49.26
2022-08-12T07:39:59.809Z,47.85
2022-08-12T07:40:56.599Z,48.14
2022-08-12T07:41:55.583Z,48.05
2022-08-12T07:42:55.595Z,47.63
2022-08-12T07:43:55.569Z,47.53
2022-08-12T07:44:55.556Z,47.63
2022-08-12T07:45:55.538Z,48.14
2022-08-12T07:46:55.531Z,47.16
2022-08-12T07:47:55.524Z,48.25
2022-08-12T07:48:55.525Z,47.65
2022-08-12T07:50:06.294Z,48.05
2022-08-12T07:50:56.490Z,46.56
2022-08-12T07:51:55.479Z,47.35
2022-08-12T07:52:55.466Z,46.26
2022-08-12T07:54:00.828Z,46.95
2022-08-12T07:54:56.442Z,46.36
2022-08-12T07:55:55.433Z,47.35
2022-08-12T07:56:55.422Z,47.03
2022-08-12T07:57:55.403Z,46.24
2022-08-12T07:58:55.423Z,45.84
2022-08-12T07:59:55.599Z,47.71
2022-08-12T08:00:55.375Z,46.42
2022-08-12T08:01:55.408Z,46.42
2022-08-12T08:02:55.352Z,46.91
2022-08-12T08:03:55.335Z,46.30
2022-08-12T08:04:55.348Z,44.33
2022-08-12T08:05:55.312Z,43.93
2022-08-12T08:06:55.307Z,45.20
2022-08-12T08:07:55.303Z,45.70
2022-08-12T08:08:55.284Z,45.60
2022-08-12T08:09:58.303Z,44.19
2022-08-12T08:10:55.257Z,44.07
2022-08-12T08:11:55.246Z,43.28
2022-08-12T08:12:55.238Z,43.67
2022-08-12T08:13:55.220Z,42.76
2022-08-12T08:14:55.225Z,42.57
2022-08-12T08:16:03.823Z,42.27
2022-08-12T08:16:56.186Z,42.76
2022-08-12T08:17:55.182Z,42.25
2022-08-12T08:18:55.171Z,42.14
2022-08-12T08:20:02.560Z,42.05
2022-08-12T08:20:56.158Z,42.43
2022-08-12T08:21:55.155Z,41.93
2022-08-12T08:22:55.128Z,41.33
2022-08-12T08:23:56.544Z,42.43
2022-08-12T08:24:55.110Z,42.50
2022-08-12T08:25:55.094Z,41.44
2022-08-12T08:26:55.081Z,41.73
2022-08-12T08:27:55.098Z,42.43
2022-08-12T08:28:55.093Z,42.22
2022-08-12T08:29:55.052Z,40.94
2022-08-12T08:30:55.051Z,42.32
2022-08-12T08:31:55.025Z,43.31
2022-08-12T08:32:55.006Z,43.12
2022-08-12T08:34:04.982Z,42.30
2022-08-12T08:34:56.070Z,41.53
2022-08-12T08:35:55.031Z,41.61
2022-08-12T08:36:54.962Z,41.04
2022-08-12T08:37:54.958Z,40.72
2022-08-12T08:38:58.126Z,40.72
2022-08-12T08:39:55.024Z,40.92
2022-08-12T08:40:54.939Z,41.10
2022-08-12T08:42:14.032Z,40.80
2022-08-12T08:42:56.426Z,41.59
2022-08-12T08:43:54.893Z,42.48
2022-08-12T08:44:57.955Z,41.77
2022-08-12T08:45:54.866Z,40.88
2022-08-12T08:46:54.871Z,40.29
2022-08-12T08:47:59.637Z,40.48
2022-08-12T08:48:59.500Z,40.80
2022-08-12T08:49:54.822Z,40.48
2022-08-12T08:51:04.120Z,40.80
2022-08-12T08:51:55.811Z,41.49
2022-08-12T08:52:54.792Z,40.80
2022-08-12T08:53:54.787Z,41.20
2022-08-12T08:54:54.770Z,40.69
2022-08-12T08:56:04.493Z,40.56
2022-08-12T08:56:55.778Z,40.27
2022-08-12T08:57:54.735Z,39.25
2022-08-12T08:58:54.720Z,38.83
2022-08-12T08:59:54.710Z,38.91
2022-08-12T09:00:54.703Z,37.53
2022-08-12T09:01:54.756Z,38.91
2022-08-12T09:02:59.354Z,38.14
2022-08-12T09:05:10.024Z,38.42
2022-08-12T09:05:14.399Z,37.85
2022-08-12T09:06:02.634Z,38.22
2022-08-12T09:06:55.890Z,38.42
2022-08-12T09:08:08.998Z,37.81
2022-08-12T09:08:55.618Z,37.59
2022-08-12T09:10:02.271Z,36.20
2022-08-12T09:10:59.584Z,36.65
2022-08-12T09:12:55.893Z,35.72
2022-08-12T09:14:11.054Z,35.11
2022-08-12T09:14:55.587Z,34.70
2022-08-12T09:15:57.447Z,35.27
2022-08-12T09:16:54.525Z,34.36
2022-08-12T09:17:54.717Z,32.99
2022-08-12T09:18:54.521Z,33.59
2022-08-12T09:19:58.229Z,34.08
2022-08-12T09:20:54.482Z,33.77
2022-08-12T09:21:55.466Z,33.50
2022-08-12T09:22:54.719Z,33.31
2022-08-12T09:24:55.443Z,33.61
2022-08-12T09:25:54.436Z,33.59
2022-08-12T09:26:54.424Z,33.38
2022-08-12T09:27:57.842Z,32.99
2022-08-12T09:28:55.409Z,32.58
2022-08-12T09:30:11.878Z,33.15
2022-08-12T09:30:57.291Z,32.35
2022-08-12T09:32:07.437Z,30.87
2022-08-12T09:33:03.920Z,31.45
2022-08-12T09:34:29.010Z,31.25
2022-08-12T09:34:55.339Z,31.72
2022-08-12T09:36:04.141Z,30.65
2022-08-12T09:37:01.101Z,30.83
2022-08-12T09:37:59.198Z,31.60
2022-08-12T09:38:59.206Z,30.63
2022-08-12T09:40:01.696Z,31.10
2022-08-12T09:40:57.214Z,29.42
2022-08-12T09:42:32.813Z,31.06
2022-08-12T09:43:15.512Z,29.57
2022-08-12T09:44:01.092Z,29.54
2022-08-12T09:45:18.345Z,27.68
2022-08-12T09:46:06.500Z,28.05
2022-08-12T09:46:56.012Z,28.45
2022-08-12T09:47:59.116Z,27.69
2022-08-12T09:48:56.394Z,29.28
2022-08-12T09:49:57.857Z,29.08
2022-08-12T09:50:55.481Z,29.08
2022-08-12T09:51:54.158Z,28.20
2022-08-12T09:54:06.037Z,27.73
2022-08-12T09:54:31.539Z,28.51
2022-08-12T09:54:59.856Z,28.83
2022-08-12T09:56:05.674Z,28.86
2022-08-12T09:57:01.911Z,30.44
2022-08-12T09:58:07.888Z,30.21
2022-08-12T09:58:59.901Z,29.50
2022-08-12T10:00:15.482Z,29.10
2022-08-12T10:00:55.235Z,29.08
2022-08-12T10:02:42.551Z,29.44
2022-08-12T10:02:55.462Z,27.97
2022-08-12T10:04:03.348Z,26.89
2022-08-12T10:04:55.092Z,27.69
2022-08-12T10:06:20.163Z,28.00
2022-08-12T10:06:57.766Z,27.33
2022-08-12T10:07:53.981Z,28.33
2022-08-12T10:08:53.980Z,29.54
2022-08-12T10:09:58.260Z,29.93
2022-08-12T10:10:54.996Z,29.42
2022-08-12T10:12:09.759Z,29.38
2022-08-12T10:13:07.719Z,28.68
2022-08-12T10:13:54.924Z,28.85
2022-08-12T10:14:54.453Z,28.23
2022-08-12T10:16:02.646Z,27.73
2022-08-12T10:16:54.897Z,27.13
2022-08-12T10:17:56.926Z,27.21
2022-08-12T10:18:54.879Z,26.42
2022-08-12T10:19:53.865Z,26.10
2022-08-12T10:20:53.855Z,26.29
2022-08-12T10:21:56.598Z,25.32
2022-08-12T10:22:54.023Z,25.23
2022-08-12T10:23:55.133Z,24.66
2022-08-12T10:24:53.809Z,25.35
2022-08-12T10:26:37.490Z,25.07
2022-08-12T10:26:54.799Z,24.98
2022-08-12T10:28:04.924Z,26.25
2022-08-12T10:29:02.356Z,26.05
2022-08-12T10:30:03.473Z,24.97
2022-08-12T10:30:54.756Z,24.88
2022-08-12T10:32:21.478Z,25.37
2022-08-12T10:32:56.390Z,24.91
2022-08-12T10:34:05.357Z,25.21
2022-08-12T10:34:57.083Z,25.24
2022-08-12T10:35:53.705Z,25.26
2022-08-12T10:36:53.692Z,27.22
2022-08-12T10:38:34.640Z,26.93
2022-08-12T10:38:56.544Z,26.84
2022-08-12T10:40:01.115Z,26.93
2022-08-12T10:40:54.757Z,27.15
2022-08-12T10:41:58.545Z,27.26
2022-08-12T10:42:54.646Z,28.54
2022-08-12T10:43:54.901Z,28.25
2022-08-12T10:44:53.615Z,28.25
2022-08-12T10:45:53.617Z,28.83
2022-08-12T10:46:53.588Z,27.78
2022-08-12T10:48:19.036Z,28.26
2022-08-12T10:48:57.993Z,29.33
2022-08-12T10:50:04.999Z,29.33
2022-08-12T10:51:00.854Z,28.44
2022-08-12T10:52:32.398Z,28.93
2022-08-12T10:52:54.528Z,28.93
2022-08-12T10:53:53.532Z,28.83
2022-08-12T10:54:54.509Z,28.05
2022-08-12T10:55:56.362Z,29.43
2022-08-12T10:56:53.498Z,28.77
2022-08-12T10:58:15.701Z,29.14
2022-08-12T10:58:54.483Z,29.33
2022-08-12T11:00:30.583Z,28.47
2022-08-12T11:00:55.217Z,28.77
2022-08-12T11:04:20.674Z,29.27
2022-08-12T11:04:25.215Z,28.69
2022-08-12T11:04:25.349Z,28.89
2022-08-12T11:04:55.076Z,29.57
2022-08-12T11:07:05.072Z,29.36
2022-08-12T11:07:08.462Z,28.11
2022-08-12T11:08:37.928Z,29.10
2022-08-12T11:08:54.461Z,28.22
2022-08-12T11:09:59.560Z,28.03
2022-08-12T11:10:54.355Z,28.33
2022-08-12T11:12:37.095Z,29.24
2022-08-12T11:12:58.820Z,29.93
2022-08-12T11:13:54.324Z,29.04
2022-08-12T11:14:54.333Z,29.73
2022-08-12T11:16:19.477Z,30.79
2022-08-12T11:17:34.317Z,29.70
2022-08-12T11:17:55.762Z,29.79
2022-08-12T11:18:55.487Z,29.59
2022-08-12T11:19:53.264Z,29.28
2022-08-12T11:20:53.276Z,29.00
2022-08-12T11:21:58.237Z,28.01
2022-08-12T11:22:57.936Z,28.59
2022-08-12T11:23:54.217Z,28.01
2022-08-12T11:24:53.800Z,27.42
2022-08-12T11:25:57.777Z,27.64
2022-08-12T11:26:54.281Z,28.32
2022-08-12T11:27:53.207Z,28.52
2022-08-12T11:28:59.214Z,27.62
2022-08-12T11:30:01.923Z,27.72
2022-08-12T11:30:54.168Z,27.02
2022-08-12T11:32:01.907Z,27.12
2022-08-12T11:32:54.563Z,27.12
2022-08-12T11:34:06.373Z,27.51
2022-08-12T11:34:55.165Z,27.22
2022-08-12T11:35:57.649Z,26.82
2022-08-12T11:36:54.055Z,26.82
2022-08-12T11:37:59.273Z,28.11
2022-08-12T11:38:54.036Z,28.09
2022-08-12T11:40:54.033Z,28.18
2022-08-12T11:41:53.270Z,26.81
2022-08-12T11:42:53.154Z,27.40
2022-08-12T11:43:58.540Z,27.87
2022-08-12T11:44:53.976Z,27.40
2022-08-12T11:45:56.576Z,27.50
2022-08-12T11:46:53.495Z,27.20
2022-08-12T11:47:55.573Z,26.82
2022-08-12T11:48:53.005Z,26.63
2022-08-12T11:49:52.923Z,26.82
2022-08-12T11:50:52.932Z,26.92
2022-08-12T11:51:57.632Z,27.51
2022-08-12T11:52:56.300Z,27.12
2022-08-12T11:53:57.136Z,27.02
2022-08-12T11:54:54.396Z,28.29
2022-08-12T11:55:52.869Z,27.70
2022-08-12T11:56:59.669Z,27.80
2022-08-12T11:58:44.108Z,27.90
2022-08-12T12:01:58.895Z,28.29
2022-08-12T12:02:01.551Z,27.70
2022-08-12T12:02:53.869Z,28.19
2022-08-12T12:03:54.784Z,27.41
2022-08-12T12:04:53.810Z,27.79
2022-08-12T12:05:52.789Z,26.90
2022-08-12T12:06:53.173Z,26.91
2022-08-12T12:08:41.024Z,26.81
2022-08-12T12:08:54.160Z,27.20
2022-08-12T12:09:53.844Z,27.01
2022-08-12T12:10:52.720Z,27.79
2022-08-12T12:11:52.705Z,28.58
2022-08-12T12:12:52.707Z,27.70
2022-08-12T12:14:06.239Z,27.31
2022-08-12T12:14:54.441Z,28.29
2022-08-12T12:15:53.175Z,26.34
2022-08-12T12:16:52.661Z,27.62
2022-08-12T12:17:55.717Z,28.00
2022-08-12T12:18:52.634Z,27.41
2022-08-12T12:19:52.629Z,27.61
2022-08-12T12:20:52.629Z,27.50
2022-08-12T12:21:52.612Z,26.70
2022-08-12T12:22:52.615Z,26.61
2022-08-12T12:23:52.583Z,27.68
2022-08-12T12:24:53.979Z,26.89
2022-08-12T12:26:06.839Z,26.01
2022-08-12T12:27:00.653Z,26.78
2022-08-12T12:28:04.185Z,26.47
2022-08-12T12:28:54.506Z,27.05
2022-08-12T12:30:18.216Z,25.87
2022-08-12T12:30:54.626Z,25.98
2022-08-12T12:32:10.078Z,26.37
2022-08-12T12:32:53.752Z,26.29
2022-08-12T12:33:58.318Z,26.19
2022-08-12T12:35:14.130Z,26.48
2022-08-12T12:36:18.754Z,25.89
2022-08-12T12:36:54.816Z,25.78
2022-08-12T12:38:04.927Z,24.99
2022-08-12T12:38:53.453Z,26.06
2022-08-12T12:39:55.350Z,25.96
2022-08-12T12:40:52.482Z,26.04
2022-08-12T12:42:45.063Z,25.75
2022-08-12T12:42:56.749Z,25.35
2022-08-12T12:43:56.416Z,24.67
2022-08-12T12:44:53.825Z,24.95
2022-08-12T12:45:52.472Z,25.53
2022-08-12T12:46:52.384Z,25.34
2022-08-12T12:47:52.390Z,25.34
2022-08-12T12:48:52.431Z,24.37
2022-08-12T12:49:53.799Z,24.57
2022-08-12T12:50:52.362Z,24.88
2022-08-12T12:52:18.972Z,25.37
2022-08-12T12:52:53.318Z,25.08
2022-08-12T12:54:06.388Z,24.69
2022-08-12T12:54:53.385Z,24.39
2022-08-12T12:55:52.265Z,26.04
2022-08-12T12:56:52.307Z,24.68